KMKL/MKL METAR and TAF weather

Enter ICAO airport designator
Station Type Date Time Source
KMKL METAR 2023/02/05 13:53 UTC NOAA

KMKL 051353Z 20010KT 10SM CLR 06/M01 A3019 RMK AO2 SLP224 T00611006


Station Type Date Time Source
KMKL Decoded METAR 2023/02/05 13:53 UTC NOAA

JACKSON MCKELLAR-SIPES RGNL, TN, United States (KMKL) 35-36N 088-55W 128M
Feb 05, 2023 - 08:53 AM EST / 2023.02.05 1353 UTC
Wind: from the SSW (200 degrees) at 12 MPH (10 KT):0
Visibility: 10 mile(s):0
Sky conditions: clear
Temperature: 43.0 F (6.1 C)
Dew Point: 30.9 F (-0.6 C)
Relative Humidity: 62%
Pressure (altimeter): 30.19 in. Hg (1022 hPa)
ob: KMKL 051353Z 20010KT 10SM CLR 06/M01 A3019 RMK AO2 SLP224 T00611006
cycle: 14

Station Type Date Time Source
KMKL TAF 2023/02/05 12:24 UTC NOAA

TAF KMKL 051123Z 0512/0612 20009KT P6SM BKN200
FM051600 22012G18KT P6SM FEW040 SCT200
FM051900 25013G20KT P6SM BKN030
FM052300 26005KT P6SM FEW250
FM060700 00000KT 2SM BR SCT003

Example: see airport list